Helena, Illinois
Current Conditions -  °F | °C
As of 6:53 PM on Tuesday 21 Oct 2014 (Local Time) from KLWV Reporting Station
Clear Clear  
Wind Chill: 52°   Ceiling: Unl
Heat Index: 52°   Visibility: 10mi
Dew Point: 42°   Wind: 8mph
Humidity: 69%   Direction: 30°NNE
Pressure: 30.15"   Gusts: NA
Location:  38.793°N, 87.8326°W
Report Text: KLWV 212353Z AUTO 03007KT 10SM CLR 11/06 A3015 RMK AO2 SLP211 60000 T01110056 10183 20111 51011
Loading
Personal Weather Stations






























Interactive Weather Map
Tropical Storm Tracking
New forecast layout! Learn more

10-Day Weather Forecast

Advertisements
Track Severe Weather on mobile